1868 Hurricane NOT_NAMED (1868240N16327)


IBTrACS version v04r00. Visit IBTrACS website for data access.
Please direct all questions to the IBTrACS Q and A forum

Storm track - Intensity - Wind Radii - Intensity Data - Source Data - All data

Summary Information

Storm ID 1868240N16327
Start Aug 27 00Z
Max Intensity 100 kt (Sep 4 12Z), 941 mb (Sep 4 18Z)
End Sep 7 12Z
ATCF IDs ,AL011868
Track status Best track data.

Storm track plot

Map of storm track

Intensity plots

Map of storm track

Radial wind information

No radial wind information for this storm


Position and Intensity Table

BASIN ISO_TIME_________ NATURE LAT LON WMO WIND USA WIND MLC WIND MLC PRES
degrees north degrees east kts kts kts mb
NA 1868-08-27 00:00:00 TS 16.00 -33.50 30
NA 03:00:00 TS 16.16 -34.25 30
NA 06:00:00 TS 16.30 -35.00 30
NA 09:00:00 TS 16.40 -35.75 30
NA 12:00:00 TS 16.50 -36.50 30
NA 15:00:00 TS 16.65 -37.25 30
NA 18:00:00 TS 16.80 -38.00 30
NA 21:00:00 TS 16.88 -38.77 30
NA 1868-08-28 00:00:00 TS 17.00 -39.50 30
NA 03:00:00 TS 17.23 -40.17 32
NA 06:00:00 TS 17.50 -40.80 35
NA 09:00:00 TS 17.75 -41.36 37
NA 12:00:00 TS 18.00 -42.00 40
NA 15:00:00 TS 18.25 -42.94 42
NA 18:00:00 TS 18.50 -43.80 45
NA 21:00:00 TS 18.75 -44.19 45
NA 1868-08-29 00:00:00 TS 19.00 -44.50 45
NA 03:00:00 TS 19.25 -45.11 45
NA 06:00:00 TS 19.50 -45.80 45
NA 09:00:00 TS 19.75 -46.40 45
NA 12:00:00 TS 20.00 -47.00 45
NA 15:00:00 TS 20.25 -47.65 45
NA 18:00:00 TS 20.50 -48.30 45
NA 21:00:00 TS 20.70 -48.89 47
NA 1868-08-30 00:00:00 TS 21.00 -49.50 50
NA 03:00:00 TS 21.50 -50.23 55
NA 06:00:00 TS 22.10 -51.00 60
NA 09:00:00 TS 22.71 -51.79 60
NA 12:00:00 TS 23.20 -52.50 60
NA 15:00:00 TS 23.42 -53.04 65
NA 18:00:00 TS 23.50 -53.50 70
NA 21:00:00 TS 23.60 -54.00 72
NA 1868-08-31 00:00:00 TS 23.70 -54.50 75
NA 03:00:00 TS 23.85 -55.00 75
NA 06:00:00 TS 24.00 -55.50 75
NA 09:00:00 TS 24.10 -56.01 75
NA 12:00:00 TS 24.20 -56.50 75
NA 15:00:00 TS 24.35 -56.96 75
NA 18:00:00 TS 24.50 -57.40 75
NA 21:00:00 TS 24.60 -57.85 75
NA 1868-09-01 00:00:00 TS 24.70 -58.30 75
NA 03:00:00 TS 24.85 -58.76 75
NA 06:00:00 TS 25.00 -59.20 75
NA 09:00:00 TS 25.08 -59.60 75
NA 12:00:00 TS 25.20 -60.00 75
NA 15:00:00 TS 25.43 -60.44 75
NA 18:00:00 TS 25.70 -60.90 75
NA 21:00:00 TS 25.90 -61.35 75
NA 1868-09-02 00:00:00 TS 26.10 -61.80 75
NA 03:00:00 TS 26.35 -62.26 75
NA 06:00:00 TS 26.60 -62.70 75
NA 09:00:00 TS 26.78 -63.10 77
NA 12:00:00 TS 27.00 -63.50 80
NA 15:00:00 TS 27.38 -63.94 80
NA 18:00:00 TS 27.80 -64.40 80
NA 21:00:00 TS 28.16 -64.85 82
NA 1868-09-03 00:00:00 TS 28.13 -66.53 70 70 85
NA 03:00:00 TS 28.32 -67.37 70 85
NA 06:00:00 TS 28.60 -67.88 70 70 85
NA 09:00:00 TS 28.92 -68.23 70 85
NA 12:00:00 TS 29.30 -68.37 70 70 85
NA 15:00:00 TS 29.66 -68.42 70 85
NA 18:00:00 TS 30.03 -68.43 70 70 85
NA 21:00:00 TS 30.42 -68.49 70 87
NA 1868-09-04 00:00:00 TS 30.83 -68.53 70 70 90
NA 03:00:00 TS 31.31 -68.54 70 92
NA 06:00:00 TS 31.80 -68.53 70 70 95
NA 09:00:00 TS 32.25 -68.57 70 97
NA 12:00:00 TS 32.70 -68.60 70 70 100
NA 15:00:00 TS 33.13 -68.62 70 100
NA 18:00:00 TS 33.60 -68.60 70 70 100 941
NA 21:00:00 TS 34.14 -68.54 75 100
NA 1868-09-05 00:00:00 TS 34.70 -68.43 80 80 100
NA 03:00:00 TS 35.24 -68.28 80 97
NA 06:00:00 TS 35.77 -68.07 80 80 95
NA 09:00:00 TS 36.29 -67.81 80 92
NA 12:00:00 TS 36.80 -67.47 80 80 90
NA 15:00:00 TS 37.25 -67.09 80 87
NA 18:00:00 TS 37.77 -66.53 80 80 85
NA 21:00:00 TS 38.45 -65.70 85 82
NA 1868-09-06 00:00:00 TS 39.20 -64.67 90 90 80
NA 03:00:00 TS 39.93 -63.56 90 77
NA 06:00:00 TS 40.67 -62.37 90 90 75
NA 09:00:00 TS 41.44 -61.17 90 72
NA 12:00:00 TS 42.20 -59.87 90 90 70
NA 15:00:00 TS 42.86 -58.40 90 70
NA 18:00:00 TS 43.50 -56.80 90 90 70
NA 21:00:00 TS 44.15 -55.09 85 67
NA 1868-09-07 00:00:00 TS 44.94 -53.06 80 80 65
NA 03:00:00 TS 45.98 -50.81 80 65
NA 06:00:00 TS 47.36 -48.48 80 80 65
NA 09:00:00 TS 50.49 -44.77 62
NA 12:00:00 ET 52.50 -42.70 60

Source Information

Agency Information
USA hurdat2-1851-2019-042820.txt:Line=1756:UNNAMED
TOKYO
CMA
HKO
NEWDELHI
REUNION
BOM
NADI
WELLINGTON
DS824
TD9636
TD9635
NEUMANN
MLC

All available IBTrACS Data

SEASON BASIN SUBBASIN ISO_TIME_________ NATURE LAT LON WMO WIND WMO AGENCY DIST2LAND LANDFALL IFLAG USA AGENCY USA ATCF_ID USA LAT USA LON USA STATUS USA WIND USA SSHS MLC LAT MLC LON MLC CLASS MLC WIND MLC PRES STORM SPEED STORM DIR
Year degrees north degrees east kts km km degrees north degrees east kts 1 degrees north degrees east kts mb kts degrees
1868 NA NA 1868-08-27 00:00:00 TS 16.00 -33.50 1722 1722 _____________O -1 16.00 -33.50 TD 30 15 283
1868 NA NA 03:00:00 TS 16.16 -34.25 1797 1797 _____________P -1 16.16 -34.25 TD 30 15 282
1868 NA NA 06:00:00 TS 16.30 -35.00 1883 1883 _____________O -1 16.30 -35.00 TD 30 15 279
1868 NA NA 09:00:00 TS 16.40 -35.75 1969 1969 _____________P -1 16.40 -35.75 TD 30 15 278
1868 NA NA 12:00:00 TS 16.50 -36.50 2044 2044 _____________O -1 16.50 -36.50 TD 30 15 280
1868 NA NA 15:00:00 TS 16.65 -37.25 2065 2016 _____________P -1 16.65 -37.25 TD 30 15 282
1868 NA NA 18:00:00 TS 16.80 -38.00 2016 1970 _____________O -1 16.80 -38.00 TD 30 15 279
1868 NA NA 21:00:00 TS 16.88 -38.77 1962 1918 _____________P -1 16.88 -38.77 TD 30 15 278
1868 NA NA 1868-08-28 00:00:00 TS 17.00 -39.50 1918 1890 _____________O -1 17.00 -39.50 TD 30 14 284
1868 NA NA 03:00:00 TS 17.23 -40.17 1884 1867 _____________P -1 17.23 -40.17 TD 32 13 292
1868 NA NA 06:00:00 TS 17.50 -40.80 1869 1854 _____________O -1 17.50 -40.80 TS 35 13 295
1868 NA NA 09:00:00 TS 17.75 -41.36 1848 1838 _____________P -1 17.75 -41.36 TS 37 12 294
1868 NA NA 12:00:00 TS 18.00 -42.00 1838 1797 _____________O -1 18.00 -42.00 TS 40 16 289
1868 NA NA 15:00:00 TS 18.25 -42.94 1806 1769 _____________P -1 18.25 -42.94 TS 42 18 286
1868 NA NA 18:00:00 TS 18.50 -43.80 1769 1761 _____________O -1 18.50 -43.80 TS 45 13 293
1868 NA NA 21:00:00 TS 18.75 -44.19 1765 1765 _____________P -1 18.75 -44.19 TS 45 8 307
1868 NA NA 1868-08-29 00:00:00 TS 19.00 -44.50 1777 1766 _____________O -1 19.00 -44.50 TS 45 10 300
1868 NA NA 03:00:00 TS 19.25 -45.11 1775 1756 _____________P -1 19.25 -45.11 TS 45 13 292
1868 NA NA 06:00:00 TS 19.50 -45.80 1761 1754 _____________O -1 19.50 -45.80 TS 45 13 292
1868 NA NA 09:00:00 TS 19.75 -46.40 1754 1754 _____________P -1 19.75 -46.40 TS 45 12 294
1868 NA NA 12:00:00 TS 20.00 -47.00 1760 1751 _____________O -1 20.00 -47.00 TS 45 13 293
1868 NA NA 15:00:00 TS 20.25 -47.65 1748 1745 _____________P -1 20.25 -47.65 TS 45 13 292
1868 NA NA 18:00:00 TS 20.50 -48.30 1745 1710 _____________O -1 20.50 -48.30 TS 45 12 291
1868 NA NA 21:00:00 TS 20.70 -48.89 1710 1684 _____________P -1 20.70 -48.89 TS 47 12 294
1868 NA NA 1868-08-30 00:00:00 TS 21.00 -49.50 1684 1645 _____________O -1 21.00 -49.50 TS 50 15 303
1868 NA NA 03:00:00 TS 21.50 -50.23 1645 1577 _____________P -1 21.50 -50.23 TS 55 18 308
1868 NA NA 06:00:00 TS 22.10 -51.00 1577 1520 _____________O -1 22.10 -51.00 TS 60 19 310
1868 NA NA 09:00:00 TS 22.71 -51.79 1514 1462 _____________P -1 22.71 -51.79 TS 60 18 308
1868 NA NA 12:00:00 TS 23.20 -52.50 1462 1422 _____________O -1 23.20 -52.50 TS 60 14 302
1868 NA NA 15:00:00 TS 23.42 -53.04 1422 1378 _____________P -1 23.42 -53.04 TS 65 10 288
1868 NA NA 18:00:00 TS 23.50 -53.50 1378 1336 _____________O -1 23.50 -53.50 HU 70 9 282
1868 NA NA 21:00:00 TS 23.60 -54.00 1336 1294 _____________P -1 23.60 -54.00 HU 72 9 282
1868 NA NA 1868-08-31 00:00:00 TS 23.70 -54.50 1294 1253 _____________O -1 23.70 -54.50 HU 75 9 285
1868 NA NA 03:00:00 TS 23.85 -55.00 1253 1219 _____________P -1 23.85 -55.00 HU 75 10 288
1868 NA NA 06:00:00 TS 24.00 -55.50 1219 1180 _____________O -1 24.00 -55.50 HU 75 10 285
1868 NA NA 09:00:00 TS 24.10 -56.01 1180 1143 _____________P -1 24.10 -56.01 HU 75 9 282
1868 NA NA 12:00:00 TS 24.20 -56.50 1143 1115 _____________O -1 24.20 -56.50 HU 75 9 286
1868 NA NA 15:00:00 TS 24.35 -56.96 1107 1088 _____________P -1 24.35 -56.96 HU 75 9 290
1868 NA NA 18:00:00 TS 24.50 -57.40 1088 1063 _____________O -1 24.50 -57.40 HU 75 9 287
1868 NA NA 21:00:00 TS 24.60 -57.85 1055 1031 _____________P -1 24.60 -57.85 HU 75 8 284
1868 NA NA 1868-09-01 00:00:00 TS 24.70 -58.30 1031 1009 _____________O -1 24.70 -58.30 HU 75 9 287
1868 NA NA 03:00:00 TS 24.85 -58.76 1002 990 _____________P -1 24.85 -58.76 HU 75 9 290
1868 NA NA 06:00:00 TS 25.00 -59.20 990 971 _____________O -1 25.00 -59.20 HU 75 8 287
1868 NA NA 09:00:00 TS 25.08 -59.60 971 954 _____________P -1 25.08 -59.60 HU 75 8 285
1868 NA NA 12:00:00 TS 25.20 -60.00 954 945 _____________O -1 25.20 -60.00 HU 75 8 295
1868 NA NA 15:00:00 TS 25.43 -60.44 948 942 _____________P -1 25.43 -60.44 HU 75 10 302
1868 NA NA 18:00:00 TS 25.70 -60.90 948 943 _____________O -1 25.70 -60.90 HU 75 9 300
1868 NA NA 21:00:00 TS 25.90 -61.35 943 938 _____________P -1 25.90 -61.35 HU 75 9 296
1868 NA NA 1868-09-02 00:00:00 TS 26.10 -61.80 945 941 _____________O -1 26.10 -61.80 HU 75 9 299
1868 NA NA 03:00:00 TS 26.35 -62.26 945 945 _____________P -1 26.35 -62.26 HU 75 10 302
1868 NA NA 06:00:00 TS 26.60 -62.70 963 960 _____________O -1 26.60 -62.70 HU 75 9 300
1868 NA NA 09:00:00 TS 26.78 -63.10 973 970 _____________P -1 26.78 -63.10 HU 77 8 299
1868 NA NA 12:00:00 TS 27.00 -63.50 985 985 _____________O -1 27.00 -63.50 HU 80 10 309
1868 NA NA 15:00:00 TS 27.38 -63.94 1020 1019 _____________P -1 27.38 -63.94 HU 80 11 315
1868 NA NA 18:00:00 TS 27.80 -64.40 1057 1057 _____________O -1 27.80 -64.40 HU 80 11 314
1868 NA NA 21:00:00 TS 28.16 -64.85 1090 1017 _____________P -1 28.16 -64.85 HU 82 19 280
1868 NA NA 1868-09-03 00:00:00 TS 28.13 -66.53 70 hurdat_atl 1012 976 O____________O hurdat_atl AL011868 27.40 -69.00 HU 70 1 28.50 -65.30 HU 85 22 274
1868 NA NA 03:00:00 TS 28.32 -67.37 973 969 P____________P AL011868 27.80 -69.00 HU 70 1 28.85 -65.75 HU 85 13 291
1868 NA NA 06:00:00 TS 28.60 -67.88 70 hurdat_atl 973 967 O____________O hurdat_atl AL011868 28.20 -69.00 HU 70 1 29.20 -66.20 HU 85 10 308
1868 NA NA 09:00:00 TS 28.92 -68.23 986 969 P____________P AL011868 28.60 -69.01 HU 70 1 29.56 -66.69 HU 85 8 329
1868 NA NA 12:00:00 TS 29.30 -68.37 70 hurdat_atl 969 947 O____________O hurdat_atl AL011868 29.00 -69.00 HU 70 1 29.90 -67.10 HU 85 8 348
1868 NA NA 15:00:00 TS 29.66 -68.42 940 919 P____________P AL011868 29.39 -68.96 HU 70 1 30.21 -67.33 HU 85 7 355
1868 NA NA 18:00:00 TS 30.03 -68.43 70 hurdat_atl 919 884 O____________O hurdat_atl AL011868 29.80 -68.90 HU 70 1 30.50 -67.50 HU 85 8 355
1868 NA NA 21:00:00 TS 30.42 -68.49 884 855 P____________P AL011868 30.23 -68.86 HU 70 1 30.79 -67.75 HU 87 8 354
1868 NA NA 1868-09-04 00:00:00 TS 30.83 -68.53 70 hurdat_atl 855 818 O____________O hurdat_atl AL011868 30.70 -68.80 HU 70 1 31.10 -68.00 HU 90 9 357
1868 NA NA 03:00:00 TS 31.31 -68.54 818 784 P____________P AL011868 31.24 -68.70 HU 70 1 31.44 -68.21 HU 92 10 1
1868 NA NA 06:00:00 TS 31.80 -68.53 70 hurdat_atl 784 750 O____________O hurdat_atl AL011868 31.80 -68.60 HU 70 1 31.80 -68.40 HU 95 9 0
1868 NA NA 09:00:00 TS 32.25 -68.57 744 720 P____________P AL011868 32.31 -68.55 HU 70 1 32.15 -68.60 HU 97 9 357
1868 NA NA 12:00:00 TS 32.70 -68.60 70 hurdat_atl 720 699 O____________O hurdat_atl AL011868 32.80 -68.50 HU 70 1 32.50 -68.80 MH 100 9 357
1868 NA NA 15:00:00 TS 33.13 -68.62 699 675 P____________P AL011868 33.29 -68.42 HU 70 1 32.82 -69.01 MH 100 9 0
1868 NA NA 18:00:00 TS 33.60 -68.60 70 hurdat_atl 675 655 O____________O hurdat_atl AL011868 33.80 -68.30 HU 70 1 33.20 -69.20 MH 100 941 10 3
1868 NA NA 21:00:00 TS 34.14 -68.54 664 648 P____________P AL011868 34.34 -68.12 HU 75 1 33.73 -69.40 MH 100 11 7
1868 NA NA 1868-09-05 00:00:00 TS 34.70 -68.43 80 hurdat_atl 654 648 O____________O hurdat_atl AL011868 34.90 -67.90 HU 80 1 34.30 -69.50 MH 100 11 11
1868 NA NA 03:00:00 TS 35.24 -68.28 653 652 P____________P AL011868 35.46 -67.71 HU 80 1 34.80 -69.42 MH 97 11 16
1868 NA NA 06:00:00 TS 35.77 -68.07 80 hurdat_atl 665 630 O____________O hurdat_atl AL011868 36.00 -67.50 HU 80 1 35.30 -69.20 HU 95 11 20
1868 NA NA 09:00:00 TS 36.29 -67.81 630 586 P____________P AL011868 36.51 -67.23 HU 80 1 35.86 -68.97 HU 92 11 25
1868 NA NA 12:00:00 TS 36.80 -67.47 80 hurdat_atl 586 555 O____________O hurdat_atl AL011868 37.00 -66.90 HU 80 1 36.40 -68.60 HU 90 11 31
1868 NA NA 15:00:00 TS 37.25 -67.09 548 531 P____________P AL011868 37.48 -66.54 HU 80 1 36.79 -68.20 HU 87 12 38
1868 NA NA 18:00:00 TS 37.77 -66.53 80 hurdat_atl 526 511 O____________O hurdat_atl AL011868 38.00 -66.10 HU 80 1 37.30 -67.40 HU 85 16 43
1868 NA NA 21:00:00 TS 38.45 -65.70 517 480 P____________P AL011868 38.56 -65.62 HU 85 2 38.22 -65.88 HU 82 20 46
1868 NA NA 1868-09-06 00:00:00 TS 39.20 -64.67 90 hurdat_atl 480 424 O____________O hurdat_atl AL011868 39.20 -65.00 HU 90 2 39.20 -64.00 HU 80 22 48
1868 NA NA 03:00:00 TS 39.93 -63.56 424 396 P____________P AL011868 39.92 -64.24 HU 90 2 39.94 -62.21 HU 77 23 50
1868 NA NA 06:00:00 TS 40.67 -62.37 90 hurdat_atl 392 382 O____________O hurdat_atl AL011868 40.70 -63.30 HU 90 2 40.60 -60.50 HU 75 24 50
1868 NA NA 09:00:00 TS 41.44 -61.17 386 347 P____________P AL011868 41.52 -62.25 HU 90 2 41.29 -59.02 HU 72 24 51
1868 NA NA 12:00:00 TS 42.20 -59.87 90 hurdat_atl 347 328 O____________O hurdat_atl AL011868 42.30 -61.00 HU 90 2 42.00 -57.60 HU 70 25 55
1868 NA NA 15:00:00 TS 42.86 -58.40 333 333 P____________P AL011868 42.94 -59.59 HU 90 2 42.70 -56.04 HU 70 26 60
1868 NA NA 18:00:00 TS 43.50 -56.80 90 hurdat_atl 364 301 O____________O hurdat_atl AL011868 43.50 -58.00 HU 90 2 43.50 -54.40 HU 70 27 62
1868 NA NA 21:00:00 TS 44.15 -55.09 291 188 P____________P AL011868 44.01 -56.28 HU 85 2 44.43 -52.71 HU 67 30 62
1868 NA NA 1868-09-07 00:00:00 TS 44.94 -53.06 80 hurdat_atl 189 157 O____________O hurdat_atl AL011868 44.50 -54.50 HU 80 1 45.60 -50.90 HU 65 35 59
1868 NA NA 03:00:00 TS 45.98 -50.81 190 190 P____________P AL011868 45.00 -52.74 HU 80 1 46.96 -48.89 HU 65 40 53
1868 NA NA 06:00:00 TS 47.36 -48.48 80 hurdat_atl 307 307 O____________O hurdat_atl AL011868 45.50 -51.00 HU 80 1 48.60 -46.80 HU 65 61 42
1868 NA NA 09:00:00 TS 50.49 -44.77 629 629 _____________P AL011868 HU -1 50.49 -44.77 HU 62 63 36
1868 NA NA 12:00:00 ET 52.50 -42.70 831 _____________O -1 52.50 -42.70 EX 60 48 32